Time;durP1;ratioP1;P1;durP2;ratioP2;P2;SDS_P1;SDS_P2;PMS_P1;PMS_P2;Temp;Humidity;BMP_temperature;BMP_pressure;BME280_temperature;BME280_humidity;BME280_pressure;Samples;Min_cycle;Max_cycle;Signal;HPM_P1;HPM_P2
2022/08/12 00:42:58;;;;;;;2.60;2.10;;;;;;;16.49;55.92;98321.09;5075820;28;20303;-65
2022/08/12 00:45:24;;;;;;;2.30;2.10;;;;;;;16.45;56.00;98309.00;5077351;28;20330;-65
2022/08/12 00:47:52;;;;;;;2.50;2.30;;;;;;;16.45;56.04;98309.00;5075603;28;20688;-65
2022/08/12 00:50:22;;;;;;;2.30;2.10;;;;;;;16.40;56.37;98311.22;5076040;28;20211;-65
2022/08/12 00:52:52;;;;;;;2.33;2.13;;;;;;;16.39;56.50;98314.88;5076507;28;20207;-65
2022/08/12 00:55:19;;;;;;;2.63;2.10;;;;;;;16.41;56.35;98312.91;5073068;28;20224;-65
2022/08/12 00:57:48;;;;;;;2.43;2.23;;;;;;;16.36;56.98;98308.97;5076635;28;20211;-65
2022/08/12 01:00:18;;;;;;;2.40;2.20;;;;;;;16.33;57.55;98307.41;5076585;28;20220;-65
2022/08/12 01:02:50;;;;;;;2.97;2.40;;;;;;;16.30;57.87;98307.69;5077372;28;20215;-65
2022/08/12 01:13:38;;;;;;;2.23;2.03;;;;;;;16.22;58.78;98306.69;5064992;28;20229;-64
2022/08/12 01:16:07;;;;;;;2.40;2.30;;;;;;;16.15;59.28;98306.38;5076543;28;20397;-65
2022/08/12 01:18:36;;;;;;;2.57;2.33;;;;;;;16.16;59.20;98313.38;5077758;28;20215;-65
2022/08/12 01:21:11;;;;;;;2.30;2.03;;;;;;;16.21;58.52;98311.16;5078563;28;20245;-65
2022/08/12 01:23:51;;;;;;;3.33;2.00;;;;;;;16.26;58.73;98310.75;5076299;28;20207;-64
2022/08/12 01:26:22;;;;;;;3.07;2.50;;;;;;;16.21;59.23;98313.81;5076060;28;20692;-64
2022/08/12 01:28:51;;;;;;;2.30;2.10;;;;;;;16.17;59.67;98312.44;5079288;28;20210;-64
2022/08/12 01:31:20;;;;;;;2.60;2.20;;;;;;;16.17;59.76;98314.25;5076249;28;20219;-64
2022/08/12 01:33:58;;;;;;;4.03;2.20;;;;;;;16.13;59.98;98306.66;5076066;28;20219;-64
2022/08/12 01:36:27;;;;;;;2.73;2.30;;;;;;;16.18;59.27;98308.78;5077043;28;20214;-63
2022/08/12 01:38:56;;;;;;;2.30;2.10;;;;;;;16.13;59.60;98308.34;5077135;28;20262;-64
2022/08/12 01:41:26;;;;;;;2.37;2.17;;;;;;;16.06;59.94;98309.00;5076111;28;20207;-64
2022/08/12 01:43:54;;;;;;;2.40;2.20;;;;;;;15.99;60.58;98299.88;5076040;28;20211;-64
2022/08/12 01:46:43;;;;;;;2.30;2.10;;;;;;;15.99;60.14;98299.88;5079406;28;20256;-64
2022/08/12 01:49:25;;;;;;;2.37;2.17;;;;;;;16.02;59.87;98300.44;5068808;28;20218;-64
2022/08/12 01:52:03;;;;;;;2.40;2.20;;;;;;;15.98;60.38;98291.03;5079992;28;20301;-64
2022/08/12 01:54:37;;;;;;;2.40;2.20;;;;;;;15.90;61.38;98292.69;5082416;28;20263;-64
2022/08/12 01:57:13;;;;;;;2.80;2.27;;;;;;;15.78;62.45;98285.78;5079908;28;20215;-64
2022/08/12 01:59:49;;;;;;;2.80;2.50;;;;;;;15.78;62.29;98279.59;5079786;28;20207;-64
2022/08/12 02:02:18;;;;;;;1.90;1.80;;;;;;;15.84;61.16;98279.91;5076217;28;20632;-64
2022/08/12 02:11:15;;;;;;;2.47;2.27;;;;;;;15.76;62.86;98281.56;5067565;28;20234;-64
2022/08/12 02:13:57;;;;;;;2.40;2.13;;;;;;;15.72;62.82;98296.13;5081519;28;20223;-64
2022/08/12 02:16:39;;;;;;;4.90;2.70;;;;;;;15.63;63.63;98297.75;5067570;28;20578;-64
2022/08/12 02:19:17;;;;;;;2.47;2.27;;;;;;;15.62;63.71;98295.22;5079234;28;20669;-64
2022/08/12 02:21:50;;;;;;;3.03;2.20;;;;;;;15.62;63.76;98295.22;5082537;28;20214;-64
2022/08/12 02:24:20;;;;;;;2.40;2.20;;;;;;;15.63;63.78;98287.09;5067796;28;20226;-64
2022/08/12 02:26:48;;;;;;;2.90;2.70;;;;;;;15.65;63.58;98289.66;5079423;28;20243;-64
2022/08/12 02:29:19;;;;;;;3.83;2.10;;;;;;;15.62;64.15;98297.88;5077762;28;20219;-64
2022/08/12 02:31:46;;;;;;;2.63;2.10;;;;;;;15.55;65.01;98294.06;5081974;28;20219;-64
2022/08/12 02:34:15;;;;;;;2.90;2.50;;;;;;;15.49;65.33;98292.78;5078997;28;20222;-64
2022/08/12 02:36:44;;;;;;;2.90;2.20;;;;;;;15.51;65.27;98292.66;5079009;28;20676;-64
2022/08/12 02:39:14;;;;;;;2.57;2.10;;;;;;;15.54;64.80;98293.25;5080269;28;20246;-64
2022/08/12 02:41:43;;;;;;;4.07;2.43;;;;;;;15.52;64.95;98284.53;5081013;28;20217;-64
2022/08/12 02:44:10;;;;;;;2.73;2.37;;;;;;;15.51;65.27;98288.16;5079189;28;20222;-65
2022/08/12 02:46:41;;;;;;;3.10;2.40;;;;;;;15.44;65.57;98287.00;5079043;28;20237;-64
2022/08/12 02:49:10;;;;;;;2.77;2.30;;;;;;;15.43;65.40;98281.81;5081155;28;20211;-64
2022/08/12 02:51:39;;;;;;;2.60;2.40;;;;;;;15.42;65.81;98285.47;5080107;28;20215;-64
2022/08/12 02:54:07;;;;;;;3.57;2.57;;;;;;;15.46;65.63;98284.22;5078684;28;20691;-64
2022/08/12 02:56:39;;;;;;;3.10;2.50;;;;;;;15.51;66.00;98279.34;5077336;28;20237;-65
2022/08/12 02:59:10;;;;;;;2.70;2.43;;;;;;;15.55;65.67;98281.59;5082134;28;20214;-65
2022/08/12 03:01:43;;;;;;;2.80;2.53;;;;;;;15.54;66.20;98279.06;5066264;28;20273;-65
2022/08/12 03:04:13;;;;;;;2.93;2.50;;;;;;;15.56;66.17;98282.44;5078571;28;20219;-64
2022/08/12 03:06:48;;;;;;;2.87;2.57;;;;;;;15.57;66.06;98281.47;5079211;28;20235;-65
2022/08/12 03:09:17;;;;;;;2.70;2.50;;;;;;;15.58;65.63;98283.16;5080162;28;20226;-64
2022/08/12 03:11:51;;;;;;;3.23;2.80;;;;;;;15.58;65.62;98277.84;5078419;28;20215;-64
2022/08/12 03:14:21;;;;;;;2.53;2.33;;;;;;;15.62;65.29;98277.44;5078664;28;20574;-64
2022/08/12 03:16:59;;;;;;;2.60;2.20;;;;;;;15.60;65.64;98275.88;5081602;28;20684;-64
2022/08/12 03:19:26;;;;;;;3.53;2.50;;;;;;;15.55;65.71;98283.41;5067270;28;20246;-65
2022/08/12 03:21:54;;;;;;;4.27;2.80;;;;;;;15.42;67.13;98277.47;5076899;28;20226;-64
2022/08/12 03:24:26;;;;;;;3.63;2.80;;;;;;;15.30;67.79;98275.81;5078784;28;20216;-64
2022/08/12 03:26:54;;;;;;;3.07;2.77;;;;;;;15.21;68.09;98274.78;5079764;28;20235;-64
2022/08/12 03:29:27;;;;;;;2.50;2.30;;;;;;;15.21;67.66;98279.28;5078384;28;20276;-66
2022/08/12 03:31:59;;;;;;;3.00;2.70;;;;;;;15.20;67.58;98282.91;5078201;28;20317;-65
2022/08/12 03:34:28;;;;;;;2.80;2.60;;;;;;;15.17;68.13;98283.19;5080975;28;20219;-64
2022/08/12 03:36:57;;;;;;;3.93;2.60;;;;;;;15.14;68.52;98272.78;5078670;28;20221;-64
2022/08/12 03:39:33;;;;;;;3.90;2.60;;;;;;;15.12;68.82;98280.06;5077837;28;20229;-64
2022/08/12 03:42:10;;;;;;;3.53;2.60;;;;;;;15.13;68.79;98279.06;5074588;28;20621;-64
2022/08/12 04:01:12;;;;;;;2.90;2.67;;;;;;;14.88;70.07;98287.44;5077448;28;20246;-65
2022/08/12 04:03:53;;;;;;;3.03;2.73;;;;;;;14.86;70.07;98284.09;5077885;28;20222;-65
2022/08/12 04:06:21;;;;;;;3.10;2.80;;;;;;;14.84;70.36;98283.38;5078565;28;20236;-65
2022/08/12 04:08:49;;;;;;;3.10;2.80;;;;;;;14.79;70.95;98293.56;5077555;28;20226;-64
2022/08/12 04:14:07;;;;;;;3.03;2.70;;;;;;;14.74;71.27;98295.75;5072550;28;20272;-64
2022/08/12 04:16:34;;;;;;;3.90;2.80;;;;;;;14.76;70.98;98289.34;5077203;28;20211;-64
2022/08/12 04:19:02;;;;;;;2.93;2.60;;;;;;;14.78;70.92;98290.03;5077323;28;20219;-64
2022/08/12 04:21:31;;;;;;;3.30;3.00;;;;;;;14.78;71.47;98292.69;5078700;28;20211;-64
2022/08/12 04:23:59;;;;;;;3.53;2.90;;;;;;;14.84;71.60;98280.72;5079169;28;20215;-64
2022/08/12 04:26:26;;;;;;;3.00;2.70;;;;;;;14.89;71.59;98281.16;5077143;28;20284;-65
2022/08/12 04:28:55;;;;;;;3.33;2.97;;;;;;;14.93;71.87;98285.25;5076824;28;20665;-65
2022/08/12 04:31:30;;;;;;;3.37;3.07;;;;;;;14.96;71.74;98279.69;5078942;28;20215;-65
2022/08/12 04:33:58;;;;;;;3.30;3.03;;;;;;;15.11;71.58;98283.69;5077782;28;20211;-65
2022/08/12 04:36:26;;;;;;;3.40;3.10;;;;;;;15.14;71.87;98291.41;5076808;28;20242;-65
2022/08/12 04:38:54;;;;;;;3.43;2.67;;;;;;;15.26;70.52;98287.69;5077079;28;20211;-65
2022/08/12 04:41:21;;;;;;;4.53;3.10;;;;;;;15.38;70.33;98284.03;5077985;28;20698;-65
2022/08/12 04:43:48;;;;;;;4.37;2.90;;;;;;;15.46;69.84;98284.22;5077532;28;20230;-65
2022/08/12 04:46:15;;;;;;;3.20;2.90;;;;;;;15.48;70.21;98285.78;5076564;28;20677;-64
2022/08/12 04:48:41;;;;;;;3.40;3.10;;;;;;;15.53;69.86;98288.03;5076805;28;20211;-64
2022/08/12 04:51:08;;;;;;;2.80;2.60;;;;;;;15.58;70.35;98288.50;5079331;28;20229;-65
2022/08/12 04:53:36;;;;;;;3.20;2.90;;;;;;;15.59;70.68;98296.31;5077686;28;20208;-65
2022/08/12 04:56:03;;;;;;;3.93;3.00;;;;;;;15.60;71.22;98302.50;5076801;28;20215;-65
2022/08/12 04:58:30;;;;;;;4.50;3.17;;;;;;;15.73;69.06;98300.47;5076786;28;20217;-65
2022/08/12 05:00:56;;;;;;;2.97;2.70;;;;;;;15.80;68.48;98301.63;5079224;28;20574;-65
2022/08/12 05:03:25;;;;;;;3.50;2.57;;;;;;;15.81;69.47;98308.63;5077935;28;20214;-65
2022/08/12 05:05:52;;;;;;;3.00;2.70;;;;;;;15.91;68.15;98298.84;5075542;28;20219;-64
2022/08/12 05:08:18;;;;;;;2.90;2.63;;;;;;;16.17;66.08;98298.25;5076033;28;20242;-65
2022/08/12 05:10:47;;;;;;;3.20;2.90;;;;;;;16.34;65.67;98297.59;5078917;28;20219;-65
2022/08/12 05:13:20;;;;;;;3.10;2.73;;;;;;;16.52;64.29;98294.13;5077267;28;20225;-65
2022/08/12 05:15:47;;;;;;;4.70;2.83;;;;;;;16.73;63.06;98300.19;5076588;28;20211;-65
2022/08/12 05:18:14;;;;;;;5.33;3.33;;;;;;;16.85;63.17;98296.41;5076168;28;20695;-65
2022/08/12 05:20:41;;;;;;;3.37;3.07;;;;;;;16.93;63.17;98303.69;5079411;28;20287;-65
2022/08/12 05:23:10;;;;;;;3.70;3.00;;;;;;;16.90;62.84;98299.50;5076657;28;20223;-65
2022/08/12 05:25:36;;;;;;;3.57;2.90;;;;;;;16.95;63.11;98301.75;5076553;28;20219;-65
2022/08/12 05:28:05;;;;;;;3.20;2.90;;;;;;;17.04;62.23;98307.06;5076128;28;20231;-65
2022/08/12 05:30:33;;;;;;;3.50;3.10;;;;;;;17.18;60.63;98295.13;5079029;28;20252;-64
2022/08/12 05:33:04;;;;;;;2.90;2.67;;;;;;;17.35;60.10;98297.03;5072909;28;20219;-64
2022/08/12 05:35:31;;;;;;;3.03;2.73;;;;;;;17.43;60.21;98303.38;5074803;28;20219;-64
2022/08/12 05:40:38;;;;;;;3.03;2.63;;;;;;;17.71;58.96;98309.63;5071787;28;20289;-64
2022/08/12 05:43:06;;;;;;;4.50;2.90;;;;;;;17.87;57.76;98324.06;5074882;28;20211;-64
2022/08/12 05:45:32;;;;;;;3.43;2.60;;;;;;;17.97;57.54;98316.84;5074821;28;20577;-64
2022/08/12 05:47:59;;;;;;;4.73;3.00;;;;;;;18.37;57.01;98328.09;5075557;28;20254;-64
2022/08/12 05:50:25;;;;;;;3.33;2.67;;;;;;;19.14;54.21;98318.47;5077352;28;20207;-64
2022/08/12 05:52:52;;;;;;;3.20;2.80;;;;;;;19.86;51.92;98332.44;5074529;28;20218;-64
2022/08/12 05:55:19;;;;;;;2.37;2.17;;;;;;;20.49;50.46;98332.94;5074784;28;20257;-64
2022/08/12 05:57:48;;;;;;;3.10;2.53;;;;;;;21.17;48.91;98332.63;5075140;28;20218;-64
2022/08/12 06:00:17;;;;;;;3.37;2.47;;;;;;;22.03;47.51;98342.66;5075711;28;21237;-64
2022/08/12 06:02:45;;;;;;;6.03;2.80;;;;;;;22.72;45.48;98340.03;5074790;28;20246;-64
2022/08/12 06:05:11;;;;;;;3.40;2.50;;;;;;;23.20;44.06;98339.78;5074919;28;20215;-64
2022/08/12 06:07:41;;;;;;;2.70;2.40;;;;;;;23.36;43.53;98333.41;5075705;28;20239;-64
2022/08/12 06:10:08;;;;;;;3.73;2.60;;;;;;;23.61;43.09;98329.47;5076825;28;20218;-65
2022/08/12 06:12:35;;;;;;;3.13;2.60;;;;;;;23.82;42.12;98341.25;5074825;28;20216;-65
2022/08/12 06:15:02;;;;;;;2.83;2.50;;;;;;;23.96;42.22;98332.34;5074800;28;20230;-64
2022/08/12 06:17:30;;;;;;;5.17;2.80;;;;;;;24.36;41.49;98334.63;5075341;28;20250;-64
2022/08/12 06:19:57;;;;;;;2.93;2.63;;;;;;;24.75;40.81;98335.13;5076715;28;20307;-64
2022/08/12 06:22:24;;;;;;;3.07;2.63;;;;;;;25.11;39.89;98330.56;5074574;28;20212;-64
2022/08/12 06:24:52;;;;;;;3.00;2.57;;;;;;;25.40;39.98;98333.19;5074336;28;20235;-64
2022/08/12 06:27:18;;;;;;;2.60;2.40;;;;;;;25.53;39.16;98344.13;5073834;28;20243;-65
2022/08/12 06:29:45;;;;;;;3.20;2.90;;;;;;;25.53;38.77;98338.72;5077007;28;20592;-64
2022/08/12 06:32:11;;;;;;;2.70;2.50;;;;;;;25.73;39.11;98336.19;5074452;28;20234;-64
2022/08/12 06:34:39;;;;;;;3.90;2.50;;;;;;;25.84;39.37;98341.88;5074414;28;20215;-64
2022/08/12 06:37:06;;;;;;;3.13;2.70;;;;;;;25.64;39.57;98342.75;5077240;28;20225;-64
2022/08/12 06:39:33;;;;;;;3.40;2.60;;;;;;;25.11;39.84;98341.38;5078014;28;20214;-64
2022/08/12 06:44:43;;;;;;;3.80;2.50;;;;;;;22.84;44.55;98338.63;5076904;28;20217;-64
2022/08/12 06:47:10;;;;;;;2.80;2.53;;;;;;;22.19;46.32;98342.59;5067762;28;20223;-64
2022/08/12 06:49:37;;;;;;;2.87;2.60;;;;;;;21.81;47.31;98335.28;5068272;28;20223;-64
2022/08/12 06:52:06;;;;;;;3.27;2.40;;;;;;;21.65;48.48;98337.97;5073211;28;20211;-64
2022/08/12 06:54:34;;;;;;;3.93;2.83;;;;;;;21.52;48.96;98337.66;5085391;28;20207;-64
2022/08/12 06:57:00;;;;;;;2.80;2.60;;;;;;;21.43;48.97;98338.69;5086463;28;20225;-64
2022/08/12 06:59:27;;;;;;;4.70;2.60;;;;;;;21.36;49.26;98336.81;5083873;28;20603;-64
2022/08/12 07:01:53;;;;;;;4.17;2.67;;;;;;;21.34;49.26;98339.66;5083016;28;20219;-64
2022/08/12 07:04:21;;;;;;;4.00;2.77;;;;;;;21.39;49.41;98336.50;5087155;28;20223;-64
2022/08/12 07:06:48;;;;;;;4.43;2.77;;;;;;;21.37;49.64;98339.34;5086321;28;20223;-64
2022/08/12 07:09:16;;;;;;;3.53;2.80;;;;;;;21.35;49.66;98341.38;5083072;28;20211;-64
2022/08/12 07:11:43;;;;;;;4.17;2.80;;;;;;;21.33;49.58;98346.06;5083121;28;20211;-64
2022/08/12 07:14:10;;;;;;;5.30;2.57;;;;;;;21.40;49.17;98344.38;5086797;28;20256;-64
2022/08/12 07:17:00;;;;;;;6.53;3.10;;;;;;;21.29;49.52;98341.19;5085383;28;20211;-66
2022/08/12 07:19:28;;;;;;;5.70;2.83;;;;;;;21.36;49.48;98345.75;5076748;28;20266;-65
2022/08/12 07:21:54;;;;;;;4.23;2.80;;;;;;;21.57;49.79;98343.38;5086203;28;20223;-64
2022/08/12 07:24:22;;;;;;;3.00;2.70;;;;;;;21.65;49.33;98340.66;5085736;28;20299;-64
2022/08/12 07:26:49;;;;;;;6.57;2.67;;;;;;;21.77;49.11;98342.03;5084714;28;20214;-63
2022/08/12 07:29:15;;;;;;;3.17;2.80;;;;;;;21.85;49.56;98342.03;5082698;28;20220;-63
2022/08/12 07:31:42;;;;;;;3.87;2.70;;;;;;;22.01;48.50;98341.97;5084641;28;20222;-63
2022/08/12 07:34:08;;;;;;;2.43;2.23;;;;;;;22.09;48.96;98341.97;5086469;28;20221;-62
2022/08/12 07:36:35;;;;;;;3.20;2.60;;;;;;;22.32;47.79;98331.28;5085256;28;20227;-64
2022/08/12 07:39:01;;;;;;;3.00;2.37;;;;;;;22.42;47.16;98335.44;5081715;28;20588;-65
2022/08/12 07:41:32;;;;;;;2.80;2.60;;;;;;;22.47;46.60;98335.78;5077428;28;20295;-64
2022/08/12 07:44:01;;;;;;;3.60;2.60;;;;;;;22.48;46.44;98333.91;5085732;28;20752;-64
2022/08/12 07:46:30;;;;;;;3.17;2.50;;;;;;;22.49;47.61;98339.16;5081621;28;20215;-64
2022/08/12 07:48:59;;;;;;;2.97;2.40;;;;;;;22.66;47.76;98335.38;5059579;28;20240;-63
2022/08/12 07:51:26;;;;;;;4.03;2.73;;;;;;;22.85;46.94;98334.09;5062166;28;20219;-63
2022/08/12 07:53:54;;;;;;;2.60;2.40;;;;;;;22.99;45.52;98326.06;5070926;28;20208;-63
2022/08/12 07:56:21;;;;;;;2.60;2.20;;;;;;;23.13;45.31;98332.53;5072020;28;20211;-63
2022/08/12 07:58:49;;;;;;;5.97;2.60;;;;;;;23.24;45.71;98327.63;5071472;28;20223;-63
2022/08/12 08:01:18;;;;;;;3.67;2.57;;;;;;;23.36;44.56;98328.84;5070796;28;20277;-63
2022/08/12 08:06:27;;;;;;;2.67;2.20;;;;;;;23.72;43.24;98319.06;5066872;28;20211;-63
2022/08/12 08:08:55;;;;;;;6.13;2.27;;;;;;;23.81;44.16;98328.78;5070404;28;20251;-63
2022/08/12 08:14:08;;;;;;;4.10;2.27;;;;;;;23.97;43.26;98317.84;5069707;28;20218;-63
2022/08/12 08:16:36;;;;;;;2.80;2.50;;;;;;;24.15;41.98;98317.47;5070569;28;20618;-63
2022/08/12 08:19:02;;;;;;;3.77;2.03;;;;;;;24.10;41.73;98307.25;5070806;28;20222;-64
2022/08/12 08:21:32;;;;;;;2.87;2.30;;;;;;;24.10;42.42;98307.25;5071288;28;20385;-63
2022/08/12 08:24:17;;;;;;;3.27;2.30;;;;;;;24.18;42.32;98309.00;5070382;28;20642;-63
2022/08/12 08:26:47;;;;;;;4.13;2.07;;;;;;;24.31;42.07;98314.59;5069926;28;20264;-63
2022/08/12 08:29:15;;;;;;;2.90;2.00;;;;;;;24.44;41.49;98309.38;5070483;28;20281;-62
2022/08/12 08:31:44;;;;;;;2.97;2.40;;;;;;;24.52;41.61;98312.81;5070730;28;20657;-63
2022/08/12 08:34:12;;;;;;;2.73;2.10;;;;;;;24.68;40.15;98322.59;5070986;28;20299;-63
2022/08/12 08:36:39;;;;;;;3.10;1.90;;;;;;;24.58;40.28;98320.19;5070008;28;20211;-63
2022/08/12 08:39:06;;;;;;;2.40;2.13;;;;;;;24.63;39.75;98316.91;5070818;28;20211;-64
2022/08/12 08:44:17;;;;;;;2.33;1.80;;;;;;;24.82;39.97;98309.00;5067678;28;20308;-64
2022/08/12 08:46:44;;;;;;;2.47;2.10;;;;;;;24.88;39.17;98302.84;5071045;28;20222;-64
2022/08/12 08:49:11;;;;;;;2.00;1.90;;;;;;;25.12;39.41;98310.59;5062318;28;20235;-63
2022/08/12 08:51:38;;;;;;;2.33;2.13;;;;;;;25.19;39.88;98310.66;5066496;28;20634;-63
2022/08/12 08:54:07;;;;;;;2.72;2.20;;;;;;;25.31;38.34;98301.03;5086899;28;20217;-64
2022/08/12 08:56:42;;;;;;;2.30;1.77;;;;;;;25.19;37.78;98306.09;5086826;28;20219;-64
2022/08/12 08:59:10;;;;;;;2.10;1.90;;;;;;;25.03;38.41;98297.38;5084241;28;20267;-63
2022/08/12 09:01:38;;;;;;;2.00;1.90;;;;;;;25.13;38.72;98301.47;5083736;28;20742;-64
2022/08/12 09:04:05;;;;;;;2.38;1.60;;;;;;;25.38;37.96;98307.34;5086535;28;20219;-63
2022/08/12 09:06:32;;;;;;;2.10;1.90;;;;;;;25.73;36.45;98299.09;5085819;28;20214;-63
2022/08/12 09:08:59;;;;;;;2.70;1.87;;;;;;;25.55;36.60;98306.84;5082756;28;20246;-64
2022/08/12 09:14:09;;;;;;;2.10;1.90;;;;;;;25.74;37.02;98295.38;5085755;28;20272;-63
2022/08/12 09:16:39;;;;;;;2.90;1.90;;;;;;;25.95;35.84;98303.47;5086859;28;20210;-63
2022/08/12 09:19:06;;;;;;;2.83;1.85;;;;;;;25.91;36.45;98291.34;5083067;28;20222;-63
2022/08/12 09:21:33;;;;;;;3.05;2.15;;;;;;;25.81;36.33;98295.41;5084790;28;20210;-62
2022/08/12 09:24:00;;;;;;;2.50;2.00;;;;;;;25.81;37.57;98290.84;5086639;28;20264;-63
2022/08/12 09:26:27;;;;;;;2.23;1.90;;;;;;;25.99;37.34;98288.50;5086258;28;20225;-63
2022/08/12 09:28:53;;;;;;;3.07;2.03;;;;;;;26.21;36.54;98287.34;5082661;28;20307;-63
2022/08/12 09:31:20;;;;;;;2.97;1.85;;;;;;;26.44;34.93;98282.47;5084317;28;20311;-63
2022/08/12 09:33:49;;;;;;;1.90;1.67;;;;;;;26.57;34.52;98289.88;5086410;28;20221;-63
2022/08/12 09:36:16;;;;;;;2.17;1.98;;;;;;;26.65;35.20;98278.84;5084229;28;20211;-62
2022/08/12 09:38:42;;;;;;;2.10;1.90;;;;;;;26.67;33.73;98283.03;5083598;28;20210;-62
2022/08/12 09:41:09;;;;;;;1.65;1.52;;;;;;;26.74;32.84;98273.03;5077977;28;20219;-63
2022/08/12 09:46:20;;;;;;;1.90;1.60;;;;;;;26.92;33.22;98276.00;5085547;28;20305;-62
2022/08/12 09:48:48;;;;;;;2.20;1.70;;;;;;;26.89;33.41;98276.41;5082366;28;20684;-64
2022/08/12 09:51:15;;;;;;;3.35;1.92;;;;;;;26.84;32.91;98268.06;5059969;28;20219;-66
2022/08/12 09:53:42;;;;;;;1.80;1.70;;;;;;;26.86;33.64;98274.09;5078390;28;20759;-65
2022/08/12 09:56:11;;;;;;;1.50;1.40;;;;;;;26.94;33.60;98263.06;5085740;28;20655;-65
2022/08/12 09:58:37;;;;;;;1.70;1.40;;;;;;;26.97;33.79;98251.81;5081257;28;20547;-64
2022/08/12 10:01:05;;;;;;;2.25;1.67;;;;;;;27.04;33.91;98252.66;5085581;28;20218;-66
2022/08/12 10:03:33;;;;;;;1.77;1.55;;;;;;;27.15;32.99;98249.34;5085063;28;20306;-66
2022/08/12 10:06:02;;;;;;;2.72;1.67;;;;;;;27.27;32.63;98246.84;5085877;28;20214;-66
2022/08/12 10:08:30;;;;;;;1.70;1.60;;;;;;;27.26;32.71;98239.75;5083199;28;20235;-65
2022/08/12 10:13:42;;;;;;;2.88;1.60;;;;;;;26.71;33.28;98246.31;5090270;28;20218;-65
2022/08/12 10:16:11;;;;;;;1.60;1.50;;;;;;;26.83;32.32;98233.81;5086961;28;20222;-67
2022/08/12 10:18:40;;;;;;;2.00;1.80;;;;;;;26.93;32.86;98242.41;5089830;28;20242;-67
2022/08/12 10:21:11;;;;;;;2.97;1.60;;;;;;;27.04;33.26;98233.66;5090551;28;20751;-67
2022/08/12 10:23:39;;;;;;;2.85;1.80;;;;;;;27.12;32.83;98228.03;5091338;28;20221;-67
2022/08/12 10:31:34;;;;;;;2.00;1.55;;;;;;;27.42;31.59;98224.75;5090844;28;20283;-67
2022/08/12 10:34:01;;;;;;;2.35;1.50;;;;;;;27.44;30.94;98221.78;5088028;28;20208;-67
2022/08/12 10:36:30;;;;;;;1.98;1.83;;;;;;;27.45;31.89;98218.06;5091248;28;20211;-67
2022/08/12 10:38:57;;;;;;;2.15;1.80;;;;;;;27.45;31.56;98216.16;5091385;28;20215;-68
2022/08/12 10:44:11;;;;;;;1.48;1.38;;;;;;;27.63;31.83;98212.81;5080563;28;20726;-68
2022/08/12 10:46:37;;;;;;;2.08;1.60;;;;;;;27.73;31.53;98210.47;5090942;28;20592;-68
2022/08/12 10:49:04;;;;;;;3.08;1.60;;;;;;;27.88;31.29;98213.84;5091103;28;20230;-68
2022/08/12 10:51:32;;;;;;;2.90;1.80;;;;;;;27.94;30.39;98207.56;5086857;28;20219;-68
2022/08/12 10:53:59;;;;;;;2.03;1.48;;;;;;;27.93;30.69;98223.00;5084701;28;20211;-67
2022/08/12 10:56:25;;;;;;;2.35;1.42;;;;;;;27.92;30.46;98215.06;5078375;28;20563;-66
2022/08/12 10:58:54;;;;;;;2.45;1.40;;;;;;;27.94;30.02;98213.00;5078838;28;20216;-67
2022/08/12 11:01:22;;;;;;;1.63;1.40;;;;;;;27.88;30.77;98205.69;5073530;28;20742;-68
2022/08/12 11:03:49;;;;;;;1.65;1.42;;;;;;;27.99;30.26;98199.56;5086917;28;20301;-69
2022/08/12 11:06:17;;;;;;;1.90;1.70;;;;;;;28.03;29.73;98198.94;5081005;28;20222;-67
2022/08/12 11:08:45;;;;;;;1.88;1.65;;;;;;;28.06;30.28;98190.34;5089323;28;20246;-67
2022/08/12 11:11:16;;;;;;;1.80;1.65;;;;;;;28.07;30.21;98188.47;5086045;28;20672;-67
2022/08/12 11:13:43;;;;;;;1.63;1.52;;;;;;;28.07;30.93;98180.34;5088908;28;20534;-67
2022/08/12 11:16:10;;;;;;;1.92;1.80;;;;;;;28.17;30.69;98180.69;5089159;28;20302;-67
2022/08/12 11:18:36;;;;;;;3.58;1.73;;;;;;;28.35;30.17;98176.22;5088432;28;20224;-67
2022/08/12 11:21:03;;;;;;;2.08;1.35;;;;;;;28.59;29.46;98180.09;5085193;28;20782;-66
2022/08/12 11:23:29;;;;;;;1.63;1.50;;;;;;;28.60;29.83;98181.75;5086632;28;20654;-67
2022/08/12 11:25:57;;;;;;;2.25;1.60;;;;;;;28.63;29.11;98189.50;5087915;28;20214;-65
2022/08/12 11:28:24;;;;;;;1.50;1.40;;;;;;;28.41;29.17;98175.41;5088383;28;20683;-66
2022/08/12 11:30:50;;;;;;;2.05;1.60;;;;;;;28.30;29.16;98172.50;5086238;28;20219;-65
2022/08/12 11:33:17;;;;;;;1.50;1.40;;;;;;;28.19;29.40;98163.13;5087438;28;20211;-66
2022/08/12 11:35:43;;;;;;;1.90;1.40;;;;;;;28.28;30.02;98164.56;5089048;28;20234;-66
2022/08/12 11:38:10;;;;;;;3.22;1.77;;;;;;;28.40;30.35;98162.84;5088770;28;20225;-66
2022/08/12 11:40:37;;;;;;;2.58;1.70;;;;;;;28.52;29.65;98165.72;5079874;28;20204;-66
2022/08/12 11:43:05;;;;;;;1.58;1.40;;;;;;;28.60;29.83;98170.88;5087059;28;20217;-66
2022/08/12 11:45:32;;;;;;;1.60;1.40;;;;;;;28.77;30.36;98164.72;5088750;28;20211;-65
2022/08/12 11:48:01;;;;;;;2.13;1.63;;;;;;;29.01;29.35;98174.84;5088745;28;20210;-65
2022/08/12 11:50:28;;;;;;;2.58;1.50;;;;;;;28.94;29.68;98174.03;5084522;28;20245;-65
2022/08/12 11:52:54;;;;;;;1.70;1.40;;;;;;;28.94;29.08;98162.28;5087054;28;20234;-67
2022/08/12 11:55:21;;;;;;;2.35;1.40;;;;;;;29.02;29.46;98162.03;5088416;28;20216;-67
2022/08/12 11:57:52;;;;;;;2.53;1.58;;;;;;;29.18;28.83;98158.78;5088207;28;20223;-67
2022/08/12 12:00:21;;;;;;;2.28;1.40;;;;;;;29.32;29.36;98138.53;5085016;28;20214;-67
2022/08/12 12:02:47;;;;;;;1.70;1.60;;;;;;;29.54;28.69;98156.16;5087173;28;20218;-67
2022/08/12 12:05:15;;;;;;;2.28;1.60;;;;;;;29.91;28.75;98157.88;5088073;28;20711;-68
2022/08/12 12:07:43;;;;;;;2.80;1.50;;;;;;;30.10;28.46;98148.63;5088437;28;20211;-67
2022/08/12 12:10:11;;;;;;;1.80;1.60;;;;;;;30.23;27.58;98149.31;5085469;28;20628;-68
2022/08/12 12:12:37;;;;;;;2.08;1.52;;;;;;;30.24;27.77;98150.13;5087069;28;20217;-67
2022/08/12 12:15:05;;;;;;;1.58;1.48;;;;;;;29.97;27.36;98148.78;5088135;28;20581;-67
2022/08/12 12:17:35;;;;;;;2.55;1.63;;;;;;;29.66;28.11;98135.31;5086423;28;20229;-67
2022/08/12 12:20:02;;;;;;;1.60;1.50;;;;;;;29.33;28.04;98156.53;5079344;28;20242;-67
2022/08/12 12:22:29;;;;;;;2.58;1.55;;;;;;;29.16;28.38;98150.00;5086860;28;20722;-68
2022/08/12 12:24:55;;;;;;;2.55;1.60;;;;;;;28.94;28.62;98145.97;5088114;28;20218;-67
2022/08/12 12:27:22;;;;;;;2.22;1.50;;;;;;;28.77;29.04;98145.69;5087966;28;20583;-67
2022/08/12 12:29:49;;;;;;;2.55;1.65;;;;;;;28.61;29.78;98145.38;5084863;28;20325;-67
2022/08/12 12:32:16;;;;;;;2.28;1.63;;;;;;;28.63;29.79;98152.25;5085918;28;20214;-67
2022/08/12 12:34:44;;;;;;;1.73;1.63;;;;;;;28.83;29.68;98149.38;5085771;28;20221;-65
2022/08/12 12:37:12;;;;;;;1.60;1.50;;;;;;;29.17;29.19;98143.50;5084576;28;20206;-65
2022/08/12 12:39:39;;;;;;;2.45;1.80;;;;;;;29.33;29.35;98132.03;5083824;28;20214;-66
2022/08/12 12:42:06;;;;;;;2.65;2.00;;;;;;;29.05;29.56;98137.13;5085471;28;20215;-67
2022/08/12 12:44:32;;;;;;;1.83;1.58;;;;;;;28.91;30.55;98140.97;5069975;28;20570;-66
2022/08/12 12:46:59;;;;;;;1.73;1.63;;;;;;;28.86;29.11;98140.81;5065096;28;20215;-65
2022/08/12 12:49:26;;;;;;;2.33;1.60;;;;;;;28.63;29.18;98133.22;5071043;28;20239;-65
2022/08/12 12:51:54;;;;;;;2.00;1.80;;;;;;;28.51;29.63;98131.41;5088841;28;20215;-65
2022/08/12 12:54:20;;;;;;;1.83;1.35;;;;;;;28.36;30.00;98119.97;5088838;28;20211;-65
2022/08/12 12:58:45;;;;;;;1.85;1.75;;;;;;;28.05;30.30;98115.31;5088590;27;20560;-68
2022/08/12 13:01:12;;;;;;;2.10;1.50;;;;;;;28.13;31.20;98117.78;5084799;28;20805;-68
2022/08/12 13:03:39;;;;;;;1.80;1.60;;;;;;;28.25;30.87;98112.50;5086939;28;20226;-69
2022/08/12 13:06:07;;;;;;;1.70;1.60;;;;;;;28.35;30.89;98119.13;5086911;28;20219;-68
2022/08/12 13:08:34;;;;;;;2.85;1.85;;;;;;;28.39;30.99;98119.56;5086771;28;20219;-69
2022/08/12 13:11:02;;;;;;;3.25;1.70;;;;;;;28.45;30.67;98113.25;5083269;28;20217;-69
2022/08/12 13:13:30;;;;;;;1.75;1.63;;;;;;;28.68;30.77;98106.16;5058085;28;20652;-69
2022/08/12 13:16:00;;;;;;;2.70;1.70;;;;;;;29.15;29.41;98112.94;5086682;28;20215;-69
2022/08/12 13:18:35;;;;;;;3.10;1.50;;;;;;;29.35;29.52;98116.31;5086346;28;20632;-69
2022/08/12 13:21:03;;;;;;;3.03;1.90;;;;;;;29.22;29.03;98116.44;5084633;28;20570;-69
2022/08/12 13:23:30;;;;;;;1.67;1.58;;;;;;;29.33;29.27;98112.97;5086118;28;20221;-69
2022/08/12 13:25:56;;;;;;;1.80;1.63;;;;;;;29.44;28.96;98110.34;5086100;28;20586;-70
2022/08/12 13:28:27;;;;;;;2.33;1.50;;;;;;;29.57;28.69;98110.25;5086122;28;20221;-68